West St. Catharines

*Note: All times are displayed in the local standard time of the station location.
**Rain - Equipment is designed to accurately record liquid precipitation; under conditions when precipitation is not in liquid form, the data displayed may not properly reflect rainfall values.

Date Max Temp
(°C)
Min Temp
(°C)
Avg Temp
(°C)
Rain (mm) Avg RH (%) Solar Rad (kJ/m2)
Fri, Dec 14, 2018 6.8 1.0 3.8 1.8 98.4 1123.8
Thu, Dec 13, 2018 6.9 -0.6 1.9 1.2 98.0 4235.8
Wed, Dec 12, 2018 2.0 -4.2 -0.5 0.2 96.3 2263.6
Tue, Dec 11, 2018 0.3 -1.5 -0.8 0.0 97.3 511.0
Mon, Dec 10, 2018 1.6 -2.7 -0.6 0.0 97.1 1505.3
Sun, Dec 09, 2018 1.2 -7.6 -3.0 0.0 93.3 5334.6
Sat, Dec 08, 2018 -0.4 -6.5 -3.2 0.0 90.6 5948.7
DateTime Avg Temp (°C) Rain (mm) RH (%) Solar Rad (kJ/m2)
Sat, Dec 15, 2018 17:00 3.0 0.0 99.9 15.3
Sat, Dec 15, 2018 16:00 3.5 0.0 99.9 93.5
Sat, Dec 15, 2018 15:00 3.9 0.0 99.9 233.0
Sat, Dec 15, 2018 14:00 4.3 0.0 98.5 360.6
Sat, Dec 15, 2018 13:00 4.3 0.0 98.6 513.1
Sat, Dec 15, 2018 12:00 3.7 0.0 99.9 456.8
Sat, Dec 15, 2018 11:00 3.0 0.0 99.9 316.3
Sat, Dec 15, 2018 10:00 2.4 0.0 99.9 224.5
Sat, Dec 15, 2018 09:00 1.5 0.0 99.9 73.2
Sat, Dec 15, 2018 08:00 1.6 0.0 99.9 5.2
Sat, Dec 15, 2018 07:00 1.1 0.0 99.9 0.3
Sat, Dec 15, 2018 06:00 0.4 0.0 99.9 0.3
Sat, Dec 15, 2018 05:00 0.2 0.0 99.9 0.6
Sat, Dec 15, 2018 04:00 1.0 0.0 99.9 0.3
Sat, Dec 15, 2018 03:00 2.1 0.0 99.9 0.9
Sat, Dec 15, 2018 02:00 2.1 0.0 99.9 0.6
Sat, Dec 15, 2018 01:00 3.4 0.0 99.9 0.3
Sat, Dec 15, 2018 00:00 4.7 0.0 99.9 0.6
Fri, Dec 14, 2018 23:00 4.5 0.0 99.9 0.0
Fri, Dec 14, 2018 22:00 4.6 0.0 99.4 0.6
Fri, Dec 14, 2018 21:00 4.4 0.0 98.8 0.9
Fri, Dec 14, 2018 20:00 4.1 0.0 99.8 0.9
Fri, Dec 14, 2018 19:00 3.7 0.0 99.5 0.3
Fri, Dec 14, 2018 18:00 3.3 0.0 99.0 0.3
Fri, Dec 14, 2018 17:00 5.4 0.0 92.7 38.2
Fri, Dec 14, 2018 16:00 6.6 0.0 88.5 120.4
Fri, Dec 14, 2018 15:00 6.6 0.0 90.4 246.4
Fri, Dec 14, 2018 14:00 5.8 0.0 95.8 238.0
Fri, Dec 14, 2018 13:00 4.9 0.0 99.9 128.6
Fri, Dec 14, 2018 12:00 4.3 0.2 99.9 125.5
Fri, Dec 14, 2018 11:00 3.9 1.2 99.9 95.7
Fri, Dec 14, 2018 10:00 4.1 0.4 99.5 78.2
Fri, Dec 14, 2018 09:00 3.8 0.0 99.9 44.3
Fri, Dec 14, 2018 08:00 3.5 0.0 99.9 1.6
Fri, Dec 14, 2018 07:00 3.0 0.0 99.9 0.3
Fri, Dec 14, 2018 06:00 2.7 0.0 99.9 0.6
Fri, Dec 14, 2018 05:00 2.4 0.0 99.9 0.9
Fri, Dec 14, 2018 04:00 1.8 0.0 99.9 0.6
Fri, Dec 14, 2018 03:00 1.2 0.0 99.9 0.3
Fri, Dec 14, 2018 02:00 1.4 0.0 99.9 0.0
Fri, Dec 14, 2018 01:00 1.6 0.0 99.9 0.6
Fri, Dec 14, 2018 00:00 1.4 0.0 99.9 0.9
Thu, Dec 13, 2018 23:00 1.3 0.0 99.9 0.3
Thu, Dec 13, 2018 22:00 0.3 0.0 99.9 0.3
Thu, Dec 13, 2018 21:00 0.4 0.0 99.9 0.3
Thu, Dec 13, 2018 20:00 1.0 0.0 99.9 0.0
Thu, Dec 13, 2018 19:00 1.9 0.0 99.9 0.0
Thu, Dec 13, 2018 18:00 2.4 0.0 99.9 0.3


asterix Register now to access more data! asterix